Time;durP1;ratioP1;P1;durP2;ratioP2;P2;SDS_P1;SDS_P2;PMS_P1;PMS_P2;Temp;Humidity;BMP_temperature;BMP_pressure;BME280_temperature;BME280_humidity;BME280_pressure;Samples;Min_cycle;Max_cycle;Signal;HPM_P1;HPM_P2
2021/01/17 00:01:54;;;;;;;24.05;12.88;;;;;;;-0.87;71.64;101744.00;10109396;28;20043;-69
2021/01/17 00:06:50;;;;;;;24.95;13.20;;;;;;;-0.86;71.63;101735.75;10106065;28;20536;-68
2021/01/17 00:11:49;;;;;;;25.95;12.77;;;;;;;-0.89;72.37;101738.03;10114015;28;20060;-69
2021/01/17 00:16:45;;;;;;;22.85;12.93;;;;;;;-0.95;72.34;101730.84;10102069;28;20078;-68
2021/01/17 00:21:45;;;;;;;23.65;13.68;;;;;;;-0.98;72.87;101726.72;10094087;28;20055;-68
2021/01/17 00:26:41;;;;;;;30.70;13.88;;;;;;;-1.03;73.02;101728.41;10106961;28;20046;-66
2021/01/17 00:31:37;;;;;;;22.98;12.52;;;;;;;-1.02;72.75;101717.47;10103970;28;20054;-66
2021/01/17 00:36:39;;;;;;;23.33;12.73;;;;;;;-1.08;73.48;101727.19;10099605;28;20061;-66
2021/01/17 00:41:36;;;;;;;21.02;12.23;;;;;;;-1.14;73.03;101720.03;10099606;28;20079;-68
2021/01/17 00:46:36;;;;;;;22.00;12.70;;;;;;;-1.09;73.11;101714.00;10117173;28;20462;-68
2021/01/17 00:51:50;;;;;;;22.50;12.63;;;;;;;-1.10;73.06;101713.16;10120386;28;20055;-68
2021/01/17 00:56:46;;;;;;;22.92;12.82;;;;;;;-1.08;73.00;101705.72;10108344;28;20055;-68
2021/01/17 01:01:44;;;;;;;21.48;12.48;;;;;;;-1.08;73.04;101711.09;10102497;28;20047;-68
2021/01/17 01:06:41;;;;;;;23.60;13.68;;;;;;;-1.10;72.91;101713.16;10113110;28;20053;-67
2021/01/17 01:11:38;;;;;;;22.90;13.57;;;;;;;-1.02;73.20;101704.06;10120516;28;20043;-68
2021/01/17 01:16:35;;;;;;;27.25;14.52;;;;;;;-1.00;73.24;101711.88;10107087;28;20059;-68
2021/01/17 01:21:34;;;;;;;23.88;13.88;;;;;;;-1.01;73.24;101716.44;10102557;28;20046;-67
2021/01/17 01:26:42;;;;;;;26.02;13.35;;;;;;;-0.88;72.86;101705.63;10104825;28;20054;-69
2021/01/17 01:31:40;;;;;;;26.27;15.38;;;;;;;-0.80;72.96;101711.75;10100220;28;20054;-69
2021/01/17 01:36:39;;;;;;;25.75;13.70;;;;;;;-0.77;72.82;101706.75;10104106;28;20074;-69
2021/01/17 01:41:37;;;;;;;22.40;13.05;;;;;;;-1.00;73.25;101703.81;10112319;28;20050;-67
2021/01/17 01:46:38;;;;;;;27.77;12.95;;;;;;;-0.74;72.13;101706.34;10112168;28;20125;-68
2021/01/17 01:51:36;;;;;;;24.67;13.88;;;;;;;-0.78;72.03;101694.38;10106175;28;20047;-68
2021/01/17 01:56:32;;;;;;;25.13;14.18;;;;;;;-0.81;71.92;101700.19;10113507;28;20105;-67
2021/01/17 02:01:28;;;;;;;22.40;12.98;;;;;;;-0.88;72.50;101688.69;10122050;28;20038;-67
2021/01/17 02:06:26;;;;;;;27.05;14.15;;;;;;;-0.88;72.77;101694.06;10114983;28;20046;-67
2021/01/17 02:11:46;;;;;;;25.70;12.77;;;;;;;-0.88;72.75;101688.69;10102488;28;20039;-68
2021/01/17 02:16:44;;;;;;;23.52;13.18;;;;;;;-0.88;72.91;101683.31;10127277;28;20520;-68
2021/01/17 02:21:53;;;;;;;26.45;14.10;;;;;;;-0.85;73.05;101682.88;10119123;28;20058;-68
2021/01/17 02:26:49;;;;;;;23.27;14.38;;;;;;;-0.87;73.18;101676.91;10107569;28;20047;-69
2021/01/17 02:31:47;;;;;;;23.67;13.63;;;;;;;-0.84;72.79;101679.13;10110637;28;20101;-65
2021/01/17 02:37:24;;;;;;;24.38;13.35;;;;;;;-1.02;73.53;101677.22;10098224;28;20054;-65
2021/01/17 02:42:20;;;;;;;25.98;13.95;;;;;;;-0.94;73.02;101673.44;10105811;28;20453;-66
2021/01/17 02:47:16;;;;;;;25.73;14.15;;;;;;;-0.94;73.19;101673.44;10090130;28;20054;-66
2021/01/17 02:52:12;;;;;;;24.73;13.48;;;;;;;-0.88;73.06;101669.88;10109970;28;20047;-69
2021/01/17 02:57:10;;;;;;;23.27;13.15;;;;;;;-0.79;73.00;101676.63;10104789;28;20394;-69
2021/01/17 03:02:07;;;;;;;26.35;14.25;;;;;;;-0.72;72.40;101672.03;10118836;28;20038;-69
2021/01/17 03:07:08;;;;;;;25.42;14.27;;;;;;;-0.92;72.67;101671.34;10110670;28;20047;-69
2021/01/17 03:12:05;;;;;;;25.05;13.63;;;;;;;-0.79;72.85;101673.09;10110523;28;20461;-68
2021/01/17 03:17:04;;;;;;;25.88;14.00;;;;;;;-0.84;72.90;101673.75;10094847;28;20051;-70
2021/01/17 03:22:01;;;;;;;22.85;13.93;;;;;;;-0.75;73.17;101667.06;10111238;28;20051;-70
2021/01/17 03:26:57;;;;;;;24.08;14.40;;;;;;;-0.62;72.64;101666.16;10131110;28;20464;-69
2021/01/17 03:31:53;;;;;;;22.67;13.52;;;;;;;-0.80;72.93;101663.41;10090711;28;20054;-69
2021/01/17 03:36:49;;;;;;;26.90;14.95;;;;;;;-0.82;72.98;101660.94;10104118;28;20046;-68
2021/01/17 03:41:45;;;;;;;27.38;14.27;;;;;;;-0.71;72.93;101657.56;10112112;28;20138;-68
2021/01/17 03:46:42;;;;;;;26.10;14.05;;;;;;;-0.69;72.82;101660.84;10113893;28;20051;-69
2021/01/17 03:51:39;;;;;;;26.65;14.55;;;;;;;-0.61;72.84;101656.22;10098554;28;20857;-68
2021/01/17 03:56:35;;;;;;;24.95;15.07;;;;;;;-0.65;72.71;101651.31;10102300;28;20069;-67
2021/01/17 04:01:31;;;;;;;30.90;14.57;;;;;;;-0.59;72.75;101644.22;10115416;28;20097;-67
2021/01/17 04:06:27;;;;;;;25.30;13.48;;;;;;;-0.79;73.16;101649.78;10100817;28;20051;-67
2021/01/17 04:11:23;;;;;;;28.17;15.45;;;;;;;-0.84;73.51;101641.53;10091009;28;20047;-67
2021/01/17 04:16:19;;;;;;;30.95;15.05;;;;;;;-0.77;73.07;101647.66;10096986;28;20054;-67
2021/01/17 04:21:16;;;;;;;24.58;14.63;;;;;;;-0.88;73.63;101640.34;10097942;28;20054;-68
2021/01/17 04:26:12;;;;;;;25.75;15.40;;;;;;;-0.83;73.57;101642.38;10089767;28;20161;-68
2021/01/17 04:31:08;;;;;;;27.33;15.70;;;;;;;-0.84;73.61;101646.91;10093549;28;20055;-68
2021/01/17 04:36:05;;;;;;;27.80;14.48;;;;;;;-0.84;73.89;101646.91;10093426;28;20051;-68
2021/01/17 04:41:04;;;;;;;28.05;15.27;;;;;;;-0.84;73.91;101652.28;10104538;28;20539;-68
2021/01/17 04:46:01;;;;;;;30.13;17.20;;;;;;;-0.75;73.46;101650.97;10114213;28;20039;-68
2021/01/17 04:51:01;;;;;;;30.67;16.20;;;;;;;-0.83;73.84;101653.94;10111637;28;20047;-68
2021/01/17 04:56:25;;;;;;;30.63;16.90;;;;;;;-0.87;73.77;101655.41;10103472;28;20051;-69
2021/01/17 05:01:39;;;;;;;29.67;16.05;;;;;;;-0.76;73.72;101654.72;10105287;28;20050;-69
2021/01/17 05:06:38;;;;;;;29.08;15.50;;;;;;;-0.81;73.97;101657.22;10106238;28;20675;-69
2021/01/17 05:11:41;;;;;;;31.08;17.48;;;;;;;-0.76;74.15;101660.06;10104731;28;20106;-66
2021/01/17 05:16:39;;;;;;;31.80;17.63;;;;;;;-0.87;74.68;101647.34;10095730;28;20133;-69
2021/01/17 05:21:39;;;;;;;27.98;17.08;;;;;;;-0.89;74.54;101662.84;10110776;28;20068;-66
2021/01/17 05:26:39;;;;;;;31.75;17.17;;;;;;;-0.85;74.59;101658.69;10115353;28;20055;-66
2021/01/17 05:31:35;;;;;;;29.70;16.13;;;;;;;-0.90;74.74;101669.28;10111249;28;20088;-67
2021/01/17 05:36:31;;;;;;;33.63;17.80;;;;;;;-0.86;74.58;101665.09;10108255;28;20147;-69
2021/01/17 05:41:27;;;;;;;31.38;16.70;;;;;;;-0.95;74.71;101666.41;10111877;28;20068;-69
2021/01/17 05:46:24;;;;;;;29.60;16.92;;;;;;;-1.06;75.07;101671.44;10112235;28;20049;-69
2021/01/17 05:51:27;;;;;;;32.20;17.70;;;;;;;-1.07;75.02;101675.19;10120129;28;20054;-69
2021/01/17 05:56:30;;;;;;;31.42;17.25;;;;;;;-1.19;75.01;101679.56;10105522;28;20053;-69
2021/01/17 06:01:28;;;;;;;31.77;16.77;;;;;;;-1.27;75.25;101682.53;10116638;28;20046;-68
2021/01/17 06:06:31;;;;;;;28.65;16.00;;;;;;;-1.34;75.70;101684.44;10107960;28;20069;-68
2021/01/17 06:11:28;;;;;;;30.80;17.35;;;;;;;-1.28;75.55;101688.91;10117538;28;20050;-68
2021/01/17 06:16:31;;;;;;;32.95;16.98;;;;;;;-1.21;75.29;101678.16;10093264;28;20042;-68
2021/01/17 06:21:30;;;;;;;31.15;18.02;;;;;;;-1.29;75.43;101687.28;10091894;28;20046;-69
2021/01/17 06:26:32;;;;;;;28.75;16.75;;;;;;;-1.27;75.55;101685.22;10109671;28;20362;-69
2021/01/17 06:31:30;;;;;;;33.08;18.63;;;;;;;-1.37;75.81;101684.84;10117447;28;20066;-68
2021/01/17 06:36:28;;;;;;;34.47;18.00;;;;;;;-1.40;75.95;101685.28;10111029;28;20047;-68
2021/01/17 06:41:38;;;;;;;30.73;17.65;;;;;;;-1.46;76.00;101683.44;10105458;28;20050;-69
2021/01/17 06:46:46;;;;;;;31.73;17.02;;;;;;;-1.50;76.04;101691.91;10111572;28;20662;-68
2021/01/17 06:51:43;;;;;;;38.00;17.65;;;;;;;-1.45;75.39;101693.97;10105458;28;20047;-69
2021/01/17 06:56:40;;;;;;;33.92;17.52;;;;;;;-1.46;75.68;101702.22;10104767;28;20083;-67
2021/01/17 07:01:43;;;;;;;31.63;16.92;;;;;;;-1.56;75.64;101702.69;10108432;28;20050;-69
2021/01/17 07:07:13;;;;;;;34.83;17.92;;;;;;;-1.52;76.24;101690.50;10108937;28;20420;-68
2021/01/17 07:12:19;;;;;;;33.75;18.63;;;;;;;-1.64;76.55;101708.28;10107124;28;20035;-68
2021/01/17 07:17:17;;;;;;;37.13;20.17;;;;;;;-1.63;76.12;101713.44;10094526;28;20464;-68
2021/01/17 07:22:16;;;;;;;34.08;17.67;;;;;;;-1.68;76.35;101705.19;10096613;28;20043;-68
2021/01/17 07:27:36;;;;;;;31.90;18.55;;;;;;;-1.72;76.07;101709.34;10100344;28;20079;-68
2021/01/17 07:32:36;;;;;;;36.10;18.83;;;;;;;-1.66;75.89;101708.50;10094439;28;20126;-68
2021/01/17 07:37:33;;;;;;;36.28;16.70;;;;;;;-1.68;76.18;101718.59;10094936;28;20109;-69
2021/01/17 07:42:33;;;;;;;34.42;18.30;;;;;;;-1.81;77.12;101715.97;10095013;28;20071;-70
2021/01/17 07:47:33;;;;;;;38.35;19.02;;;;;;;-1.68;76.29;101729.34;10091664;28;20456;-68
2021/01/17 07:52:29;;;;;;;35.20;18.15;;;;;;;-1.66;76.44;101735.31;10102301;28;20046;-69
2021/01/17 07:57:26;;;;;;;32.78;17.45;;;;;;;-1.62;76.02;101741.09;10091643;28;20109;-68
2021/01/17 08:02:24;;;;;;;34.55;18.33;;;;;;;-1.65;76.29;101746.84;10099033;28;20104;-69
2021/01/17 08:07:32;;;;;;;32.70;18.02;;;;;;;-1.61;76.46;101748.91;10094652;28;20137;-70
2021/01/17 08:12:29;;;;;;;32.20;17.58;;;;;;;-1.51;76.43;101749.31;10099037;28;20050;-70
2021/01/17 08:17:36;;;;;;;32.75;18.27;;;;;;;-1.42;76.32;101763.28;10088635;28;20049;-70
2021/01/17 08:22:33;;;;;;;35.08;17.27;;;;;;;-1.44;75.97;101764.53;10096752;28;20501;-70
2021/01/17 08:27:32;;;;;;;34.78;18.65;;;;;;;-1.41;75.87;101774.84;10099766;28;20051;-68
2021/01/17 08:32:38;;;;;;;37.22;19.13;;;;;;;-1.36;76.15;101777.72;10087919;28;20130;-69
2021/01/17 08:37:34;;;;;;;34.90;19.48;;;;;;;-1.29;76.30;101778.50;10098131;28;20043;-69
2021/01/17 08:42:33;;;;;;;36.55;17.85;;;;;;;-1.22;75.69;101784.69;10096423;28;20501;-68
2021/01/17 08:47:34;;;;;;;34.72;17.08;;;;;;;-1.11;75.79;101789.38;10096010;28;20054;-70
2021/01/17 08:52:33;;;;;;;33.00;17.83;;;;;;;-1.04;75.69;101796.56;10101250;28;20043;-68
2021/01/17 08:57:42;;;;;;;33.65;18.58;;;;;;;-1.03;74.80;101806.28;10099000;28;20078;-68
2021/01/17 09:02:38;;;;;;;32.88;16.92;;;;;;;-1.06;74.58;101816.41;10103611;28;20053;-67
2021/01/17 09:07:37;;;;;;;34.13;17.13;;;;;;;-1.06;74.38;101816.41;10105904;28;20047;-67
2021/01/17 09:12:36;;;;;;;37.03;19.50;;;;;;;-0.98;74.46;101827.94;10099476;28;20058;-67
2021/01/17 09:17:33;;;;;;;32.15;17.55;;;;;;;-0.90;74.05;101835.75;10099203;28;20058;-68
2021/01/17 09:22:29;;;;;;;29.20;16.60;;;;;;;-0.91;74.18;101842.97;10095677;28;20043;-68
2021/01/17 09:27:26;;;;;;;30.48;17.80;;;;;;;-0.79;73.71;101843.13;10091891;28;20051;-67
2021/01/17 09:32:23;;;;;;;33.40;16.58;;;;;;;-0.96;73.98;101852.69;10100401;28;20055;-67
2021/01/17 09:37:19;;;;;;;29.30;16.00;;;;;;;-0.76;73.38;101864.19;10103112;28;20572;-67
2021/01/17 09:42:18;;;;;;;33.72;17.42;;;;;;;-0.61;73.24;101865.75;10095148;28;20057;-68
2021/01/17 09:47:16;;;;;;;30.83;17.17;;;;;;;-0.50;73.38;101875.81;10082561;28;20098;-68
2021/01/17 09:52:16;;;;;;;34.10;17.65;;;;;;;-0.39;72.84;101875.13;10097748;28;20050;-68
2021/01/17 09:57:20;;;;;;;29.75;16.90;;;;;;;-0.55;72.09;101876.47;10112410;28;20624;-68
2021/01/17 10:02:21;;;;;;;31.27;16.92;;;;;;;-0.28;71.63;101866.38;10097081;28;20051;-68
2021/01/17 10:07:21;;;;;;;28.13;15.85;;;;;;;-0.23;71.87;101863.88;10108882;28;20180;-68
2021/01/17 10:12:26;;;;;;;27.67;16.02;;;;;;;-0.11;71.57;101861.28;10099910;28;20104;-68
2021/01/17 10:17:25;;;;;;;30.45;15.68;;;;;;;-0.02;71.19;101860.00;10106236;28;20058;-68
2021/01/17 10:22:21;;;;;;;28.08;16.38;;;;;;;-0.09;70.82;101866.47;10107428;28;20554;-68
2021/01/17 10:27:17;;;;;;;29.38;15.20;;;;;;;0.03;69.38;101867.41;10107201;28;20071;-68
2021/01/17 10:32:14;;;;;;;31.45;16.23;;;;;;;0.02;69.93;101863.03;10092776;28;20058;-67
2021/01/17 10:37:14;;;;;;;28.50;15.57;;;;;;;0.04;69.86;101863.66;10100977;28;20050;-67
2021/01/17 10:42:30;;;;;;;27.95;15.73;;;;;;;0.10;70.38;101854.72;10101201;28;20527;-67
2021/01/17 10:47:35;;;;;;;30.33;17.98;;;;;;;0.08;70.56;101854.09;10101546;28;20042;-67
2021/01/17 10:52:34;;;;;;;30.23;15.52;;;;;;;-0.11;70.40;101860.47;10095278;28;20055;-68
2021/01/17 10:57:33;;;;;;;27.95;15.95;;;;;;;-0.02;70.19;101864.53;10100320;28;20144;-69
2021/01/17 11:02:29;;;;;;;28.50;15.07;;;;;;;-0.03;69.87;101863.69;10094341;28;20489;-68
2021/01/17 11:07:27;;;;;;;25.33;14.00;;;;;;;0.08;69.58;101864.06;10091517;28;20296;-68
2021/01/17 11:12:37;;;;;;;27.67;15.68;;;;;;;0.27;69.83;101862.22;10090670;28;20121;-69
2021/01/17 11:17:35;;;;;;;24.25;13.98;;;;;;;0.58;68.20;101861.28;10080725;28;20055;-68
2021/01/17 11:22:32;;;;;;;25.63;15.38;;;;;;;0.85;66.68;101869.91;10102270;28;20161;-69
2021/01/17 11:27:36;;;;;;;24.70;14.38;;;;;;;1.14;66.38;101864.78;10097230;28;20050;-68
2021/01/17 11:32:36;;;;;;;24.50;13.73;;;;;;;1.07;64.79;101855.97;10094578;28;20142;-68
2021/01/17 11:37:37;;;;;;;26.83;14.65;;;;;;;1.06;65.65;101849.78;10088194;28;20144;-68
2021/01/17 11:42:33;;;;;;;25.27;14.35;;;;;;;1.21;65.48;101857.47;10096437;28;20118;-69
2021/01/17 11:47:29;;;;;;;23.00;14.63;;;;;;;1.15;65.16;101852.97;10100410;28;20587;-67
2021/01/17 11:52:25;;;;;;;25.27;14.93;;;;;;;1.18;63.60;101864.13;10094203;28;20054;-67
2021/01/17 11:57:26;;;;;;;25.70;13.88;;;;;;;1.01;64.29;101863.91;10095809;28;20058;-67
2021/01/17 12:02:23;;;;;;;27.20;15.55;;;;;;;0.90;64.32;101866.53;10100855;28;20097;-67
2021/01/17 12:07:20;;;;;;;27.40;14.90;;;;;;;0.83;64.53;101859.34;10095524;28;20555;-67
2021/01/17 12:12:17;;;;;;;31.85;16.10;;;;;;;0.89;65.12;101860.34;10099101;28;20064;-67
2021/01/17 12:17:14;;;;;;;27.63;15.65;;;;;;;0.90;64.38;101845.81;10110534;28;20047;-67
2021/01/17 12:22:10;;;;;;;30.85;15.38;;;;;;;1.05;64.69;101850.84;10115697;28;20055;-67
2021/01/17 12:27:06;;;;;;;27.05;15.05;;;;;;;1.66;64.68;101838.16;10102736;28;20039;-68
2021/01/17 12:32:03;;;;;;;26.83;15.57;;;;;;;2.35;62.07;101846.59;10091018;28;20070;-66
2021/01/17 12:36:59;;;;;;;24.58;14.40;;;;;;;2.99;59.78;101835.78;10093529;28;20090;-66
2021/01/17 12:41:57;;;;;;;24.50;15.00;;;;;;;3.43;58.33;101840.69;10096308;28;20047;-66
2021/01/17 12:46:53;;;;;;;28.88;16.27;;;;;;;3.33;58.22;101846.72;10102531;28;20436;-66
2021/01/17 12:51:50;;;;;;;28.58;16.75;;;;;;;3.45;56.74;101842.06;10098467;28;21171;-66
2021/01/17 12:56:46;;;;;;;26.92;16.00;;;;;;;3.80;57.35;101846.47;10097882;28;20421;-66
2021/01/17 13:01:42;;;;;;;26.23;14.95;;;;;;;4.07;55.58;101840.44;10112685;28;20420;-66
2021/01/17 13:06:38;;;;;;;25.67;15.65;;;;;;;3.93;55.34;101839.94;10117809;28;20054;-67
2021/01/17 13:11:34;;;;;;;27.90;16.10;;;;;;;3.59;55.89;101829.88;10115294;28;20051;-66
2021/01/17 13:16:30;;;;;;;28.67;15.73;;;;;;;3.85;55.42;101827.63;10117684;28;20051;-66
2021/01/17 13:21:27;;;;;;;26.38;16.15;;;;;;;3.94;55.49;101819.91;10120795;28;20054;-66
2021/01/17 13:26:23;;;;;;;26.25;15.27;;;;;;;3.92;55.32;101812.06;10132048;28;20401;-66
2021/01/17 13:31:25;;;;;;;25.33;16.15;;;;;;;3.69;55.47;101814.91;10122243;28;20509;-66
2021/01/17 13:36:22;;;;;;;26.63;15.67;;;;;;;3.10;56.50;101815.22;10125624;28;20057;-66
2021/01/17 13:41:18;;;;;;;30.63;17.48;;;;;;;2.35;59.17;101813.38;10125316;28;20473;-66
2021/01/17 13:46:14;;;;;;;29.38;16.77;;;;;;;2.27;59.35;101823.44;10102823;28;20043;-67
2021/01/17 13:51:10;;;;;;;29.88;16.35;;;;;;;2.37;59.25;101811.25;10099975;28;20069;-68
2021/01/17 13:56:06;;;;;;;27.58;16.00;;;;;;;2.44;59.67;101822.78;10093862;28;20043;-70
2021/01/17 14:01:02;;;;;;;30.30;17.10;;;;;;;2.28;59.52;101835.91;10099851;28;20043;-66
2021/01/17 14:05:58;;;;;;;28.73;16.63;;;;;;;2.14;59.79;101842.59;10097719;28;20043;-68
2021/01/17 14:10:54;;;;;;;29.98;16.98;;;;;;;2.12;59.91;101847.41;10101393;28;20449;-66
2021/01/17 14:15:50;;;;;;;31.67;17.40;;;;;;;2.07;61.24;101855.38;10092894;28;20046;-69
2021/01/17 14:20:47;;;;;;;30.05;16.58;;;;;;;2.25;61.01;101857.97;10094625;28;20063;-69
2021/01/17 14:25:43;;;;;;;26.85;15.25;;;;;;;2.54;60.43;101866.19;10099027;28;20076;-69
2021/01/17 14:30:39;;;;;;;27.40;16.85;;;;;;;2.68;58.75;101872.97;10097854;28;20076;-66
2021/01/17 14:35:35;;;;;;;25.83;15.27;;;;;;;2.31;58.56;101873.22;10092690;28;20055;-69
2021/01/17 14:40:31;;;;;;;28.40;15.80;;;;;;;2.05;59.58;101873.66;10089724;28;20142;-66
2021/01/17 14:45:27;;;;;;;30.20;16.10;;;;;;;1.96;60.95;101877.75;10094208;28;20121;-68
2021/01/17 14:50:23;;;;;;;27.15;15.60;;;;;;;1.89;60.98;101889.47;10098300;28;20059;-67
2021/01/17 14:55:21;;;;;;;28.52;16.02;;;;;;;1.68;60.79;101896.22;10090811;28;20128;-67
2021/01/17 15:00:18;;;;;;;29.67;15.13;;;;;;;1.46;61.30;101895.91;10089119;28;20051;-67
2021/01/17 15:05:14;;;;;;;25.02;14.77;;;;;;;1.36;61.61;101886.69;10094239;28;20524;-67
2021/01/17 15:10:11;;;;;;;24.08;14.38;;;;;;;1.27;62.10;101883.50;10092145;28;20058;-67
2021/01/17 15:15:07;;;;;;;25.20;14.40;;;;;;;1.22;61.85;101896.81;10099792;28;20058;-67
2021/01/17 15:20:04;;;;;;;25.90;15.05;;;;;;;1.22;62.24;101896.81;10096415;28;20106;-67
2021/01/17 15:25:00;;;;;;;22.50;13.48;;;;;;;1.18;62.24;101892.94;10110188;28;20043;-67
2021/01/17 15:30:17;;;;;;;24.63;13.75;;;;;;;1.14;62.93;101897.13;10105764;28;20058;-67
2021/01/17 15:35:14;;;;;;;23.67;13.57;;;;;;;1.23;62.80;101901.16;10107800;28;20117;-67
2021/01/17 15:40:10;;;;;;;23.08;13.65;;;;;;;1.32;62.93;101926.75;10102359;28;20047;-68
2021/01/17 15:45:06;;;;;;;25.45;14.55;;;;;;;1.29;63.08;101908.34;10117675;28;20106;-68
2021/01/17 15:50:03;;;;;;;25.70;13.68;;;;;;;1.17;62.82;101915.53;10106849;28;20050;-67
2021/01/17 15:54:59;;;;;;;23.48;13.05;;;;;;;1.37;62.65;101910.75;10099809;28;20055;-67
2021/01/17 15:59:56;;;;;;;29.90;12.32;;;;;;;1.41;61.77;101922.69;10103459;28;20046;-67
2021/01/17 16:04:52;;;;;;;24.92;13.15;;;;;;;1.43;61.84;101925.97;10112102;28;20073;-67
2021/01/17 16:09:48;;;;;;;24.70;13.50;;;;;;;1.47;61.65;101927.19;10112363;28;20054;-67
2021/01/17 16:14:44;;;;;;;22.25;12.35;;;;;;;1.38;61.77;101933.94;10112760;28;20043;-67
2021/01/17 16:19:40;;;;;;;25.38;12.55;;;;;;;1.14;62.73;101932.13;10118968;28;20046;-68
2021/01/17 16:24:36;;;;;;;19.95;11.55;;;;;;;0.94;62.32;101943.97;10118428;28;20475;-67
2021/01/17 16:29:32;;;;;;;24.70;12.50;;;;;;;1.23;62.73;101938.88;10118558;28;20109;-68
2021/01/17 16:34:30;;;;;;;21.33;11.68;;;;;;;1.14;62.56;101953.69;10120305;28;20048;-68
2021/01/17 16:39:26;;;;;;;21.98;12.50;;;;;;;1.31;62.49;101952.06;10125598;28;20563;-68
2021/01/17 16:44:22;;;;;;;23.02;12.45;;;;;;;1.35;61.81;101955.13;10094426;28;20066;-67
2021/01/17 16:49:18;;;;;;;23.60;12.77;;;;;;;1.31;62.00;101954.75;10122135;28;20053;-67
2021/01/17 16:54:18;;;;;;;23.05;11.85;;;;;;;1.22;61.25;101953.41;10105134;28;20043;-68
2021/01/17 16:59:14;;;;;;;22.90;11.30;;;;;;;1.17;61.46;101953.25;10098214;28;20476;-67
2021/01/17 17:04:14;;;;;;;22.73;12.35;;;;;;;1.18;61.73;101960.28;10097555;28;20061;-67
2021/01/17 17:09:10;;;;;;;23.38;13.35;;;;;;;0.94;62.88;101952.03;10086303;28;20054;-67
2021/01/17 17:14:06;;;;;;;24.13;12.52;;;;;;;1.01;62.40;101960.88;10089411;28;20044;-67
2021/01/17 17:19:06;;;;;;;25.63;12.98;;;;;;;1.12;61.98;101955.81;10091211;28;20056;-67
2021/01/17 17:24:05;;;;;;;25.55;12.57;;;;;;;0.75;63.37;101961.16;10096188;28;20051;-67
2021/01/17 17:29:04;;;;;;;25.02;12.52;;;;;;;0.99;62.64;101965.66;10105712;28;20418;-67
2021/01/17 17:34:00;;;;;;;26.00;13.95;;;;;;;1.02;62.89;101954.47;10105193;28;20051;-67
2021/01/17 17:38:56;;;;;;;26.15;13.07;;;;;;;0.90;62.75;101966.19;10105865;28;20101;-67
2021/01/17 17:43:52;;;;;;;34.90;14.23;;;;;;;0.75;63.25;101955.78;10098110;28;20055;-67
2021/01/17 17:48:51;;;;;;;25.48;13.68;;;;;;;0.55;63.95;101956.75;10095719;28;20134;-66
2021/01/17 17:53:47;;;;;;;24.50;13.50;;;;;;;0.61;64.39;101950.50;10090095;28;20137;-67
2021/01/17 17:58:43;;;;;;;28.92;14.55;;;;;;;0.69;63.90;101953.97;10093504;28;20488;-67
2021/01/17 18:03:39;;;;;;;25.13;13.88;;;;;;;0.53;64.08;101958.03;10094683;28;20050;-66
2021/01/17 18:08:37;;;;;;;27.15;14.68;;;;;;;0.54;64.58;101948.94;10098852;28;20055;-66
2021/01/17 18:13:33;;;;;;;24.08;14.05;;;;;;;0.52;65.13;101957.22;10098554;28;21522;-65
2021/01/17 18:18:30;;;;;;;26.58;13.60;;;;;;;0.71;64.34;101954.56;10099654;28;20523;-65
2021/01/17 18:23:28;;;;;;;24.83;13.77;;;;;;;0.65;64.32;101955.44;10102908;28;20465;-66
2021/01/17 18:28:24;;;;;;;26.02;13.73;;;;;;;0.51;64.54;101963.66;10107424;28;20046;-66
2021/01/17 18:33:21;;;;;;;23.42;12.45;;;;;;;0.62;64.43;101965.59;10109424;28;22594;-66
2021/01/17 18:38:17;;;;;;;22.42;12.45;;;;;;;0.39;64.99;101968.06;10112409;28;20078;-66
2021/01/17 18:43:13;;;;;;;23.23;12.45;;;;;;;0.57;64.66;101965.44;10115813;28;20398;-66
2021/01/17 18:48:09;;;;;;;23.60;13.65;;;;;;;0.45;65.04;101967.22;10098348;28;20061;-66
2021/01/17 18:53:05;;;;;;;25.80;12.95;;;;;;;0.52;65.02;101964.47;10095776;28;20532;-68
2021/01/17 18:58:02;;;;;;;29.25;14.20;;;;;;;0.41;65.28;101956.03;10081021;28;20074;-66
2021/01/17 19:02:58;;;;;;;25.92;14.48;;;;;;;0.44;65.45;101965.53;10094487;28;20046;-66
2021/01/17 19:07:55;;;;;;;23.13;12.52;;;;;;;0.51;65.51;101981.63;10071279;28;540570;-66
2021/01/17 19:12:51;;;;;;;23.38;13.07;;;;;;;0.47;65.62;101975.88;10091875;28;20087;-66
2021/01/17 19:17:50;;;;;;;24.98;15.50;;;;;;;0.53;65.77;101974.19;10097179;28;20104;-66
2021/01/17 19:22:47;;;;;;;24.33;12.95;;;;;;;0.59;65.36;101981.38;10108697;28;20085;-65
2021/01/17 19:27:43;;;;;;;25.58;14.07;;;;;;;0.60;65.76;101970.41;10114870;28;20508;-66
2021/01/17 19:32:39;;;;;;;23.27;13.70;;;;;;;0.72;65.09;101972.34;10107769;28;20046;-66
2021/01/17 19:37:36;;;;;;;26.08;14.82;;;;;;;0.56;65.71;101985.34;10116913;28;20054;-66
2021/01/17 19:42:32;;;;;;;30.38;14.30;;;;;;;0.42;66.38;101983.81;10117577;28;20105;-66
2021/01/17 19:47:28;;;;;;;26.45;14.60;;;;;;;0.47;66.24;101986.66;10111897;28;20054;-66
2021/01/17 19:52:24;;;;;;;27.58;14.48;;;;;;;0.50;66.41;101986.19;10103964;28;20054;-66
2021/01/17 19:57:20;;;;;;;24.30;13.55;;;;;;;0.54;66.87;101992.81;10095011;28;20057;-66
2021/01/17 20:02:16;;;;;;;23.95;14.70;;;;;;;0.59;66.42;101984.88;10092746;28;20054;-66
2021/01/17 20:07:17;;;;;;;27.45;14.55;;;;;;;0.29;68.10;101983.88;10100290;28;20062;-66
2021/01/17 20:12:14;;;;;;;25.52;14.00;;;;;;;0.60;66.91;101977.63;10099869;28;20051;-66
2021/01/17 20:17:10;;;;;;;27.40;14.80;;;;;;;0.57;66.76;101970.81;10091809;28;20448;-66
2021/01/17 20:22:07;;;;;;;28.67;14.77;;;;;;;0.51;67.57;101971.72;10117078;28;20706;-66
2021/01/17 20:27:03;;;;;;;28.88;15.88;;;;;;;0.47;67.65;101965.13;10094756;28;20086;-66
2021/01/17 20:31:59;;;;;;;31.92;16.20;;;;;;;0.53;67.87;101964.22;10102453;28;20054;-67
2021/01/17 20:36:55;;;;;;;28.88;16.60;;;;;;;0.54;68.24;101960.50;10098095;28;20057;-66
2021/01/17 20:41:52;;;;;;;30.40;16.02;;;;;;;0.44;68.98;101952.09;10119826;28;20051;-66
2021/01/17 20:46:55;;;;;;;32.35;17.95;;;;;;;0.44;69.10;101946.72;10102955;28;20467;-67
2021/01/17 20:51:55;;;;;;;29.95;17.30;;;;;;;0.46;69.49;101941.94;10104363;28;20152;-66
2021/01/17 20:56:51;;;;;;;34.67;18.23;;;;;;;0.39;70.05;101946.53;10104116;28;20133;-64
2021/01/17 21:01:47;;;;;;;31.77;17.27;;;;;;;0.39;70.24;101960.00;10096717;28;20058;-65
2021/01/17 21:06:44;;;;;;;31.73;18.05;;;;;;;0.47;70.15;101954.34;10126730;28;20062;-66
2021/01/17 21:11:40;;;;;;;30.92;18.05;;;;;;;0.63;69.85;101953.81;10092522;28;20050;-66
2021/01/17 21:16:36;;;;;;;32.70;17.10;;;;;;;0.49;70.09;101952.28;10120558;28;20069;-66
2021/01/17 21:21:46;;;;;;;31.40;18.17;;;;;;;0.60;70.05;101954.25;10133614;28;20570;-67
2021/01/17 21:26:42;;;;;;;29.95;17.60;;;;;;;0.51;70.34;101949.34;10126331;28;20050;-67
2021/01/17 21:31:38;;;;;;;27.10;16.23;;;;;;;0.55;69.84;101946.00;10114372;28;20051;-67
2021/01/17 21:36:35;;;;;;;32.40;18.13;;;;;;;0.46;70.25;101952.69;10107947;28;20122;-68
2021/01/17 21:41:33;;;;;;;30.95;17.60;;;;;;;0.26;69.84;101947.50;10105449;28;20481;-68
2021/01/17 21:46:29;;;;;;;30.50;17.55;;;;;;;0.27;70.93;101932.97;10114108;28;20133;-68
2021/01/17 21:51:25;;;;;;;32.63;18.08;;;;;;;0.43;70.70;101939.69;10110076;28;20046;-66
2021/01/17 21:56:21;;;;;;;33.50;18.63;;;;;;;0.41;70.78;101942.59;10107863;28;20770;-65
2021/01/17 22:01:17;;;;;;;33.78;18.27;;;;;;;0.52;70.67;101945.63;10122480;28;20050;-65
2021/01/17 22:06:16;;;;;;;30.45;18.67;;;;;;;0.49;70.80;101951.44;10120879;28;20117;-67
2021/01/17 22:11:16;;;;;;;35.80;18.33;;;;;;;0.37;71.29;101954.00;10131296;28;20046;-67
2021/01/17 22:16:15;;;;;;;32.47;18.25;;;;;;;0.31;71.59;101950.34;10131269;28;20063;-67
2021/01/17 22:21:11;;;;;;;34.65;18.00;;;;;;;0.38;71.80;101947.59;10132130;28;20078;-67
2021/01/17 22:26:07;;;;;;;35.08;19.05;;;;;;;0.30;71.50;101945.16;10124315;28;20059;-67